createdAt,value
2023-03-06T00:01:10.691Z,20.25
2023-03-06T00:03:38.427Z,20.45
2023-03-06T00:06:06.385Z,20.25
2023-03-06T00:08:34.130Z,20.74
2023-03-06T00:11:02.168Z,21.68
2023-03-06T00:13:31.461Z,21.94
2023-03-06T00:16:03.567Z,21.93
2023-03-06T00:18:31.311Z,21.13
2023-03-06T00:20:59.030Z,21.52
2023-03-06T00:23:27.866Z,22.12
2023-03-06T00:25:55.578Z,23.05
2023-03-06T00:28:23.626Z,22.68
2023-03-06T00:30:51.672Z,22.66
2023-03-06T00:33:19.413Z,23.69
2023-03-06T00:35:47.208Z,24.12
2023-03-06T00:38:14.905Z,23.62
2023-03-06T00:40:42.633Z,22.82
2023-03-06T00:43:11.046Z,23.54
2023-03-06T00:45:39.206Z,23.37
2023-03-06T00:48:09.292Z,23.82
2023-03-06T00:50:36.963Z,23.48
2023-03-06T00:53:04.678Z,23.38
2023-03-06T00:55:33.597Z,23.32
2023-03-06T00:58:01.752Z,23.11
2023-03-06T01:00:29.481Z,22.74
2023-03-06T01:02:57.427Z,23.51
2023-03-06T01:05:25.250Z,23.50
2023-03-06T01:07:53.002Z,24.15
2023-03-06T01:10:20.867Z,23.98
2023-03-06T01:12:48.897Z,24.57
2023-03-06T01:15:16.524Z,24.07
2023-03-06T01:17:44.771Z,23.94
2023-03-06T01:20:15.771Z,23.89
2023-03-06T01:22:43.649Z,24.68
2023-03-06T01:25:12.813Z,25.66
2023-03-06T01:27:40.463Z,24.93
2023-03-06T01:30:12.094Z,25.78
2023-03-06T01:32:40.190Z,25.54
2023-03-06T01:35:08.783Z,26.68
2023-03-06T01:37:37.659Z,26.80
2023-03-06T01:40:06.610Z,27.78
2023-03-06T01:42:34.480Z,27.15
2023-03-06T01:45:08.491Z,28.50
2023-03-06T01:47:36.868Z,28.27
2023-03-06T01:50:10.868Z,27.93
2023-03-06T01:52:57.769Z,28.64
2023-03-06T01:55:33.986Z,29.46
2023-03-06T01:58:07.516Z,28.82
2023-03-06T02:00:35.324Z,29.76
2023-03-06T02:03:18.557Z,30.15
2023-03-06T02:05:46.900Z,29.38
2023-03-06T02:08:18.587Z,29.28
2023-03-06T02:11:04.592Z,29.92
2023-03-06T02:13:32.770Z,30.93
2023-03-06T02:16:02.006Z,31.53
2023-03-06T02:18:32.782Z,30.97
2023-03-06T02:21:06.179Z,31.43
2023-03-06T02:23:44.566Z,31.84
2023-03-06T02:26:13.624Z,32.06
2023-03-06T02:28:41.673Z,32.92
2023-03-06T02:31:18.762Z,33.50
2023-03-06T02:33:46.515Z,33.84
2023-03-06T02:36:16.722Z,34.44
2023-03-06T02:38:51.195Z,34.84
2023-03-06T02:41:20.633Z,36.05
2023-03-06T02:43:52.108Z,35.94
2023-03-06T02:46:19.984Z,35.39
2023-03-06T02:48:47.790Z,35.29
2023-03-06T02:51:15.557Z,35.54
2023-03-06T02:53:44.582Z,36.16
2023-03-06T02:56:12.527Z,36.39
2023-03-06T02:58:43.058Z,37.06
2023-03-06T03:01:11.692Z,36.31
2023-03-06T03:03:40.357Z,38.00
2023-03-06T03:06:08.913Z,37.86
2023-03-06T03:08:37.670Z,37.71
2023-03-06T03:11:06.023Z,38.96
2023-03-06T03:13:40.627Z,38.90
2023-03-06T03:16:15.495Z,40.22
2023-03-06T03:18:45.200Z,41.48
2023-03-06T03:21:14.935Z,39.80
2023-03-06T03:23:42.687Z,40.54
2023-03-06T03:26:20.169Z,39.84
2023-03-06T03:29:05.453Z,41.46
2023-03-06T03:31:33.610Z,40.47
2023-03-06T03:34:02.969Z,40.18
2023-03-06T03:36:34.316Z,41.12
2023-03-06T03:39:04.282Z,41.65
2023-03-06T03:41:32.607Z,42.19
2023-03-06T03:44:01.077Z,41.66
2023-03-06T03:46:29.215Z,41.87
2023-03-06T03:48:57.915Z,41.68
2023-03-06T03:51:25.716Z,40.99
2023-03-06T03:53:58.171Z,40.15
2023-03-06T03:56:29.016Z,40.52
2023-03-06T03:59:04.669Z,41.60
2023-03-06T04:01:39.833Z,42.52
2023-03-06T04:04:08.754Z,42.85
2023-03-06T04:06:37.836Z,43.71
2023-03-06T04:09:06.726Z,43.05
2023-03-06T04:11:36.488Z,41.83
2023-03-06T04:14:04.447Z,43.55
2023-03-06T04:16:33.372Z,43.95
2023-03-06T04:19:04.246Z,43.06
2023-03-06T04:21:33.426Z,43.07
2023-03-06T04:24:04.445Z,43.69
2023-03-06T04:26:32.789Z,43.26
2023-03-06T04:29:00.725Z,44.19
2023-03-06T04:31:29.739Z,43.45
2023-03-06T04:33:57.701Z,44.83
2023-03-06T04:36:32.936Z,44.52
2023-03-06T04:39:06.042Z,47.36
2023-03-06T04:41:35.556Z,45.51
2023-03-06T04:44:03.623Z,46.69
2023-03-06T04:46:31.979Z,46.31
2023-03-06T04:49:00.711Z,46.29
2023-03-06T04:51:28.652Z,45.29
2023-03-06T04:53:56.363Z,47.46
2023-03-06T04:56:24.190Z,46.80
2023-03-06T04:58:52.016Z,45.07
2023-03-06T05:01:19.779Z,44.64
2023-03-06T05:03:47.973Z,44.95
2023-03-06T05:06:15.751Z,47.12
2023-03-06T05:08:43.385Z,46.85
2023-03-06T05:11:11.806Z,46.20
2023-03-06T05:13:39.649Z,43.65
2023-03-06T05:16:08.392Z,42.72
2023-03-06T05:18:36.816Z,43.66
2023-03-06T05:21:05.328Z,42.76
2023-03-06T05:23:35.484Z,45.23
2023-03-06T05:26:12.890Z,43.54
2023-03-06T05:28:41.215Z,46.48
2023-03-06T05:31:09.386Z,43.53
2023-03-06T05:33:37.784Z,44.94
2023-03-06T05:36:07.352Z,45.38
2023-03-06T05:38:35.119Z,45.95
2023-03-06T05:41:02.997Z,47.10
2023-03-06T05:43:30.779Z,47.18
2023-03-06T05:46:05.678Z,46.63
2023-03-06T05:48:35.755Z,46.04
2023-03-06T05:51:04.791Z,46.55
2023-03-06T05:53:33.705Z,48.22
2023-03-06T05:56:05.299Z,47.71
2023-03-06T05:58:34.837Z,47.81
2023-03-06T06:01:11.526Z,47.81
2023-03-06T06:03:39.816Z,48.31
2023-03-06T06:06:10.258Z,48.91
2023-03-06T06:08:38.235Z,48.88
2023-03-06T06:11:07.569Z,48.05
2023-03-06T06:13:36.186Z,48.25
2023-03-06T06:16:12.998Z,48.19
2023-03-06T06:18:41.378Z,48.78
2023-03-06T06:21:11.555Z,50.22
2023-03-06T06:23:39.300Z,49.49
2023-03-06T06:26:08.897Z,48.49
2023-03-06T06:28:36.707Z,49.28
2023-03-06T06:31:12.735Z,50.46
2023-03-06T06:33:42.121Z,50.24
2023-03-06T06:36:19.179Z,49.86
2023-03-06T06:38:47.301Z,51.38
2023-03-06T06:44:10.725Z,50.98
2023-03-06T06:49:26.735Z,52.97
2023-03-06T06:51:54.530Z,53.69
2023-03-06T06:54:23.014Z,53.18
2023-03-06T06:56:50.988Z,52.48
2023-03-06T06:59:18.636Z,52.63
2023-03-06T07:01:46.360Z,54.95
2023-03-06T07:04:15.252Z,53.79
2023-03-06T07:06:43.933Z,55.39
2023-03-06T07:09:13.104Z,54.73
2023-03-06T07:11:41.509Z,56.31
2023-03-06T07:14:09.886Z,57.38
2023-03-06T07:16:37.654Z,55.43
2023-03-06T07:19:08.970Z,57.50
2023-03-06T07:21:36.619Z,58.22
2023-03-06T07:24:04.738Z,57.29
2023-03-06T07:26:34.632Z,58.04
2023-03-06T07:29:04.219Z,56.40
2023-03-06T07:31:32.538Z,57.39
2023-03-06T07:34:04.922Z,56.36
2023-03-06T07:36:34.659Z,56.44
2023-03-06T07:39:02.525Z,56.99
2023-03-06T07:41:30.411Z,54.61
2023-03-06T07:44:01.392Z,56.69
2023-03-06T07:46:29.827Z,55.22
2023-03-06T07:49:00.876Z,54.02
2023-03-06T07:51:28.696Z,53.68
2023-03-06T07:53:56.444Z,53.43
2023-03-06T07:56:24.156Z,52.21
2023-03-06T07:58:52.128Z,52.89
2023-03-06T08:01:23.699Z,52.62
2023-03-06T08:03:51.732Z,54.73
2023-03-06T08:06:25.926Z,55.67
2023-03-06T08:08:55.667Z,54.63
2023-03-06T08:11:26.521Z,53.45
2023-03-06T08:13:55.180Z,51.98
2023-03-06T08:16:25.461Z,52.95
2023-03-06T08:18:53.515Z,53.33
2023-03-06T08:21:23.964Z,52.32
2023-03-06T08:23:52.174Z,50.51
2023-03-06T08:26:33.004Z,53.16
2023-03-06T08:29:02.555Z,53.18
2023-03-06T08:31:34.026Z,51.52
2023-03-06T08:34:05.002Z,51.53
2023-03-06T08:36:33.216Z,51.01
2023-03-06T08:39:02.097Z,50.30
2023-03-06T08:41:30.746Z,51.38
2023-03-06T08:43:58.651Z,49.62
2023-03-06T08:46:28.755Z,48.62
2023-03-06T08:48:58.114Z,47.79
2023-03-06T08:51:26.733Z,49.53
2023-03-06T08:53:55.673Z,50.19
2023-03-06T08:56:27.546Z,52.14
2023-03-06T08:58:57.337Z,50.85
2023-03-06T09:01:26.918Z,51.35
2023-03-06T09:03:56.739Z,48.34
2023-03-06T09:06:27.000Z,50.95
2023-03-06T09:08:55.651Z,50.01
2023-03-06T09:11:26.294Z,48.78
2023-03-06T09:13:55.337Z,49.02
2023-03-06T09:16:23.923Z,48.17
2023-03-06T09:18:54.087Z,50.49
2023-03-06T09:21:23.955Z,51.24
2023-03-06T09:23:52.254Z,51.70
2023-03-06T09:26:21.048Z,50.24
2023-03-06T09:28:48.823Z,51.04
2023-03-06T09:31:19.807Z,51.36
2023-03-06T09:33:48.636Z,48.16
2023-03-06T09:36:21.882Z,48.12
2023-03-06T09:38:50.298Z,50.41
2023-03-06T09:41:41.826Z,48.43
2023-03-06T09:44:45.661Z,49.32
2023-03-06T09:47:38.551Z,47.26
2023-03-06T09:50:29.479Z,46.15
2023-03-06T09:53:21.959Z,47.02
2023-03-06T09:56:09.992Z,45.85
2023-03-06T09:58:46.699Z,46.15
2023-03-06T10:01:22.272Z,44.69
2023-03-06T10:04:42.021Z,46.49
2023-03-06T10:07:21.351Z,46.72
2023-03-06T10:10:06.875Z,46.26
2023-03-06T10:12:48.380Z,45.17
2023-03-06T10:15:26.927Z,43.87
2023-03-06T10:17:55.898Z,44.73
2023-03-06T10:20:28.314Z,43.68
2023-03-06T10:23:05.133Z,43.65
2023-03-06T10:25:54.730Z,44.40
2023-03-06T10:28:56.487Z,42.53
2023-03-06T10:31:27.061Z,39.86
2023-03-06T10:34:28.505Z,41.43
2023-03-06T10:37:02.626Z,42.07
2023-03-06T10:39:30.832Z,42.47
2023-03-06T10:41:58.910Z,42.58
2023-03-06T10:44:26.949Z,41.68
2023-03-06T10:46:55.184Z,40.89
2023-03-06T10:49:38.819Z,39.53
2023-03-06T10:52:20.068Z,39.97
2023-03-06T10:54:48.731Z,39.15
2023-03-06T10:57:36.678Z,37.35
2023-03-06T11:00:36.078Z,39.20
2023-03-06T11:03:21.912Z,39.11
2023-03-06T11:06:13.418Z,39.05
2023-03-06T11:08:44.216Z,38.30
2023-03-06T11:11:36.537Z,38.46
2023-03-06T11:14:16.080Z,39.41
2023-03-06T11:16:55.449Z,36.50
2023-03-06T11:19:29.547Z,35.70
2023-03-06T11:22:18.542Z,37.58
2023-03-06T11:24:53.373Z,38.89
2023-03-06T11:27:35.019Z,38.77
2023-03-06T11:30:10.446Z,39.24
2023-03-06T11:32:56.755Z,40.77
2023-03-06T11:35:49.529Z,35.48
2023-03-06T11:38:33.923Z,37.87
2023-03-06T11:41:08.265Z,37.29
2023-03-06T11:44:14.665Z,39.17
2023-03-06T11:46:48.827Z,36.95
2023-03-06T11:49:40.020Z,38.21
2023-03-06T11:52:26.154Z,39.04
2023-03-06T11:54:58.369Z,35.21
2023-03-06T11:57:38.100Z,33.09
2023-03-06T12:00:44.071Z,31.78
2023-03-06T12:03:52.868Z,31.96
2023-03-06T12:06:53.268Z,32.97
2023-03-06T12:09:46.432Z,32.58
2023-03-06T12:12:29.867Z,32.67
2023-03-06T12:15:27.074Z,31.40
2023-03-06T12:18:18.581Z,31.88
2023-03-06T12:20:58.235Z,31.87
2023-03-06T12:23:36.367Z,30.20
2023-03-06T12:26:07.042Z,31.03
2023-03-06T12:29:01.019Z,30.16
2023-03-06T12:31:37.788Z,32.05
2023-03-06T12:34:20.086Z,30.52
2023-03-06T12:36:59.615Z,28.97
2023-03-06T12:39:59.676Z,28.72
2023-03-06T12:42:49.410Z,28.77
2023-03-06T12:45:33.240Z,30.43
2023-03-06T12:48:02.666Z,27.91
2023-03-06T12:50:33.686Z,25.02
2023-03-06T12:53:06.321Z,25.35
2023-03-06T12:55:43.828Z,26.96
2023-03-06T12:58:32.281Z,29.19
2023-03-06T13:01:09.290Z,29.19
2023-03-06T13:04:05.773Z,28.28
2023-03-06T13:07:19.279Z,27.97
2023-03-06T13:10:15.636Z,29.20
2023-03-06T13:12:57.599Z,28.76
2023-03-06T13:15:46.136Z,29.55
2023-03-06T13:18:23.079Z,30.24
2023-03-06T13:20:56.275Z,30.28
2023-03-06T13:23:32.845Z,30.31
2023-03-06T13:26:31.005Z,30.17
2023-03-06T13:28:59.736Z,30.59
2023-03-06T13:31:33.524Z,30.05
2023-03-06T13:34:33.748Z,30.53
2023-03-06T13:37:23.522Z,29.77
2023-03-06T13:40:00.440Z,29.90
2023-03-06T13:42:32.919Z,31.29
2023-03-06T13:45:17.826Z,30.25
2023-03-06T13:48:22.544Z,30.27
2023-03-06T13:50:48.410Z,29.03
2023-03-06T13:53:31.064Z,28.28
2023-03-06T13:56:26.551Z,28.17
2023-03-06T13:59:30.318Z,27.25
2023-03-06T14:02:51.778Z,26.96
2023-03-06T14:05:21.397Z,28.28
2023-03-06T14:08:10.568Z,27.18
2023-03-06T14:10:39.721Z,28.05
2023-03-06T14:13:41.831Z,27.55
2023-03-06T14:16:25.228Z,27.81
2023-03-06T14:18:58.568Z,28.78
2023-03-06T14:21:48.222Z,27.71
2023-03-06T14:24:18.688Z,26.56
2023-03-06T14:26:50.500Z,26.79
2023-03-06T14:29:24.345Z,27.81
2023-03-06T14:31:55.837Z,27.95
2023-03-06T14:34:31.987Z,28.44
2023-03-06T14:37:18.980Z,27.95
2023-03-06T14:39:47.015Z,29.22
2023-03-06T14:42:24.840Z,30.32
2023-03-06T14:45:08.005Z,29.94
2023-03-06T14:47:37.093Z,29.85
2023-03-06T14:50:27.634Z,31.45
2023-03-06T14:52:59.752Z,31.71
2023-03-06T14:55:30.789Z,31.17
2023-03-06T14:58:38.930Z,30.56
2023-03-06T15:01:10.521Z,30.37
2023-03-06T15:03:50.517Z,30.06
2023-03-06T15:06:22.855Z,30.88
2023-03-06T15:09:24.315Z,31.35
2023-03-06T15:12:01.788Z,30.48
2023-03-06T15:14:42.031Z,30.78
2023-03-06T15:17:18.913Z,30.39
2023-03-06T15:19:49.735Z,30.50
2023-03-06T15:22:40.277Z,30.80
2023-03-06T15:25:22.879Z,30.64
2023-03-06T15:27:55.560Z,29.50
2023-03-06T15:30:35.976Z,29.14
2023-03-06T15:33:25.005Z,29.21
2023-03-06T15:36:18.595Z,27.43
2023-03-06T15:38:47.260Z,27.46
2023-03-06T15:41:42.279Z,26.77
2023-03-06T15:44:13.409Z,25.54
2023-03-06T15:46:41.917Z,25.31
2023-03-06T15:49:17.417Z,26.03
2023-03-06T15:51:45.623Z,26.62
2023-03-06T15:54:13.486Z,26.89
2023-03-06T15:56:44.677Z,27.65
2023-03-06T15:59:23.293Z,29.65
2023-03-06T16:01:52.108Z,31.50
2023-03-06T16:04:20.254Z,32.15
2023-03-06T16:06:48.029Z,31.11
2023-03-06T16:09:15.901Z,31.70
2023-03-06T16:11:45.507Z,32.55
2023-03-06T16:14:21.600Z,32.21
2023-03-06T16:16:50.249Z,31.55
2023-03-06T16:19:29.005Z,32.80
2023-03-06T16:21:59.210Z,32.54
2023-03-06T16:24:26.877Z,33.02
2023-03-06T16:26:55.721Z,30.69
2023-03-06T16:29:26.437Z,29.59
2023-03-06T16:31:56.819Z,29.59
2023-03-06T16:34:25.434Z,30.02
2023-03-06T16:36:53.863Z,29.22
2023-03-06T16:39:23.830Z,30.13
2023-03-06T16:41:52.731Z,30.12
2023-03-06T16:44:21.461Z,30.27
2023-03-06T16:46:50.485Z,30.50
2023-03-06T16:49:23.978Z,29.41
2023-03-06T16:51:53.219Z,29.55
2023-03-06T16:54:23.258Z,30.07
2023-03-06T16:56:50.996Z,31.28
2023-03-06T16:59:18.743Z,30.46
2023-03-06T17:01:46.558Z,31.16
2023-03-06T17:04:14.421Z,31.23
2023-03-06T17:06:43.165Z,31.33
2023-03-06T17:09:11.355Z,30.28
2023-03-06T17:11:39.490Z,31.61
2023-03-06T17:14:07.406Z,30.66
2023-03-06T17:16:39.211Z,33.02
2023-03-06T17:19:07.527Z,32.81
2023-03-06T17:21:37.466Z,32.69
2023-03-06T17:24:05.427Z,32.87
2023-03-06T17:26:34.268Z,34.06
2023-03-06T17:29:02.228Z,33.63
2023-03-06T17:31:30.784Z,32.73
2023-03-06T17:34:02.037Z,32.57
2023-03-06T17:36:34.463Z,32.60
2023-03-06T17:39:03.965Z,33.90
2023-03-06T17:41:34.248Z,31.12
2023-03-06T17:44:02.246Z,32.17
2023-03-06T17:46:34.630Z,32.50
2023-03-06T17:49:02.602Z,32.03
2023-03-06T17:51:30.829Z,33.24
2023-03-06T17:53:58.851Z,32.69
2023-03-06T17:56:27.520Z,33.05
2023-03-06T17:58:55.559Z,34.38
2023-03-06T18:01:30.583Z,33.60
2023-03-06T18:03:59.182Z,33.51
2023-03-06T18:06:30.272Z,34.63
2023-03-06T18:08:59.383Z,34.18
2023-03-06T18:11:27.371Z,32.91
2023-03-06T18:13:55.347Z,32.60
2023-03-06T18:16:25.443Z,32.77
2023-03-06T18:18:55.125Z,32.52
2023-03-06T18:21:24.811Z,32.54
2023-03-06T18:23:52.926Z,32.37
2023-03-06T18:26:24.016Z,31.76
2023-03-06T18:28:57.594Z,32.15
2023-03-06T18:31:28.481Z,30.79
2023-03-06T18:33:59.642Z,30.97
2023-03-06T18:36:30.789Z,31.17
2023-03-06T18:39:01.116Z,32.66
2023-03-06T18:41:28.822Z,32.49
2023-03-06T18:43:59.735Z,32.08
2023-03-06T18:46:32.360Z,33.04
2023-03-06T18:49:00.342Z,31.97
2023-03-06T18:51:28.747Z,32.44
2023-03-06T18:54:02.195Z,33.49
2023-03-06T18:56:30.017Z,33.36
2023-03-06T18:59:03.534Z,34.03
2023-03-06T19:01:32.128Z,32.73
2023-03-06T19:04:02.486Z,33.48
2023-03-06T19:06:30.826Z,34.51
2023-03-06T19:08:58.948Z,33.97
2023-03-06T19:11:27.236Z,35.36
2023-03-06T19:13:55.592Z,34.61
2023-03-06T19:16:27.243Z,34.78
2023-03-06T19:18:56.036Z,34.06
2023-03-06T19:21:26.615Z,34.77
2023-03-06T19:23:54.989Z,35.08
2023-03-06T19:26:23.294Z,35.22
2023-03-06T19:28:52.989Z,35.73
2023-03-06T19:31:26.740Z,35.63
2023-03-06T19:33:59.612Z,35.41
2023-03-06T19:36:33.550Z,37.40
2023-03-06T19:39:04.438Z,36.63
2023-03-06T19:41:35.542Z,36.90
2023-03-06T19:44:05.755Z,39.29
2023-03-06T19:46:34.567Z,36.99
2023-03-06T19:49:11.821Z,37.93
2023-03-06T19:51:39.947Z,36.22
2023-03-06T19:54:07.670Z,36.42
2023-03-06T19:56:35.334Z,37.76
2023-03-06T19:59:03.595Z,37.75
2023-03-06T20:01:31.798Z,38.41
2023-03-06T20:04:02.786Z,37.16
2023-03-06T20:06:39.033Z,39.13
2023-03-06T20:09:09.303Z,39.46
2023-03-06T20:11:37.690Z,39.26
2023-03-06T20:14:07.651Z,39.08
2023-03-06T20:16:36.134Z,40.54
2023-03-06T20:19:04.336Z,40.57
2023-03-06T20:21:37.713Z,39.11
2023-03-06T20:24:07.241Z,40.65
2023-03-06T20:26:38.674Z,40.11
2023-03-06T20:29:06.406Z,40.63
2023-03-06T20:31:34.474Z,39.23
2023-03-06T20:34:03.133Z,41.50
2023-03-06T20:36:35.507Z,40.03
2023-03-06T20:39:09.035Z,41.18
2023-03-06T20:41:37.856Z,42.06
2023-03-06T20:44:07.520Z,42.42
2023-03-06T20:46:35.454Z,40.12
2023-03-06T20:49:03.749Z,40.00
2023-03-06T20:51:33.949Z,41.94
2023-03-06T20:54:03.347Z,43.93
2023-03-06T20:56:33.184Z,43.42
2023-03-06T20:59:07.185Z,40.56
2023-03-06T21:01:39.225Z,40.38
2023-03-06T21:04:07.727Z,41.87
2023-03-06T21:06:36.704Z,39.32
2023-03-06T21:09:06.784Z,41.40
2023-03-06T21:11:35.263Z,39.67
2023-03-06T21:14:03.440Z,39.98
2023-03-06T21:16:31.878Z,38.23
2023-03-06T21:19:02.777Z,38.80
2023-03-06T21:21:33.068Z,36.48
2023-03-06T21:24:02.382Z,37.48
2023-03-06T21:26:33.970Z,37.03
2023-03-06T21:29:03.639Z,36.98
2023-03-06T21:31:33.501Z,36.15
2023-03-06T21:34:04.603Z,36.18
2023-03-06T21:36:35.564Z,35.49
2023-03-06T21:39:06.480Z,36.65
2023-03-06T21:41:38.262Z,35.53
2023-03-06T21:44:06.857Z,34.70
2023-03-06T21:46:35.149Z,35.41
2023-03-06T21:49:04.847Z,34.22
2023-03-06T21:51:33.173Z,33.45
2023-03-06T21:54:02.313Z,32.80
2023-03-06T21:56:29.978Z,32.83
2023-03-06T21:59:01.054Z,31.85
2023-03-06T22:01:30.321Z,30.76
2023-03-06T22:04:00.011Z,31.15
2023-03-06T22:06:33.922Z,30.85
2023-03-06T22:09:02.438Z,31.38
2023-03-06T22:11:34.270Z,30.62
2023-03-06T22:14:02.343Z,29.66
2023-03-06T22:16:30.653Z,30.79
2023-03-06T22:18:58.775Z,29.99
2023-03-06T22:21:26.704Z,29.26
2023-03-06T22:24:00.436Z,29.22
2023-03-06T22:26:29.855Z,28.69
2023-03-06T22:28:58.195Z,27.71
2023-03-06T22:31:28.744Z,26.73
2023-03-06T22:33:58.867Z,25.42
2023-03-06T22:36:28.354Z,24.06
2023-03-06T22:38:59.155Z,23.76
2023-03-06T22:41:27.510Z,24.87
2023-03-06T22:44:00.640Z,24.82
2023-03-06T22:46:29.764Z,25.25
2023-03-06T22:49:01.661Z,24.57
2023-03-06T22:51:29.768Z,24.27
2023-03-06T22:53:58.216Z,24.64
2023-03-06T22:56:26.622Z,23.25
2023-03-06T22:58:54.504Z,23.52
2023-03-06T23:01:29.106Z,22.64
2023-03-06T23:04:00.286Z,22.74
2023-03-06T23:06:34.069Z,21.26
2023-03-06T23:09:20.546Z,21.90
2023-03-06T23:12:09.229Z,21.25
2023-03-06T23:14:55.718Z,21.48
2023-03-06T23:17:42.246Z,21.39
2023-03-06T23:20:28.503Z,21.40
2023-03-06T23:23:14.843Z,20.90
2023-03-06T23:25:43.615Z,22.14
2023-03-06T23:28:12.515Z,21.47
2023-03-06T23:30:41.527Z,21.47
2023-03-06T23:33:09.365Z,21.53
2023-03-06T23:35:39.062Z,20.49
2023-03-06T23:38:07.318Z,21.11
2023-03-06T23:40:36.832Z,19.57
2023-03-06T23:43:05.023Z,19.97
2023-03-06T23:45:33.023Z,19.72
2023-03-06T23:48:00.812Z,19.25
2023-03-06T23:50:28.621Z,18.79
2023-03-06T23:52:56.734Z,18.07
2023-03-06T23:55:24.540Z,18.14
2023-03-06T23:57:52.434Z,17.82
